Time;durP1;ratioP1;P1;durP2;ratioP2;P2;SDS_P1;SDS_P2;PMS_P1;PMS_P2;Temp;Humidity;BMP_temperature;BMP_pressure;BME280_temperature;BME280_humidity;BME280_pressure;Samples;Min_cycle;Max_cycle;Signal;HPM_P1;HPM_P2
2022/04/01 00:00:35;;;;;;;2.80;2.60;;;;;;;6.30;89.01;94643.53;5042713;28;20203;-59
2022/04/01 00:03:01;;;;;;;2.80;2.63;;;;;;;6.20;89.40;94638.44;5043867;28;20463;-59
2022/04/01 00:05:28;;;;;;;2.93;2.80;;;;;;;6.26;89.14;94642.22;5043526;28;20523;-58
2022/04/01 00:07:54;;;;;;;3.00;2.80;;;;;;;6.13;89.02;94647.97;5042215;28;20206;-58
2022/04/01 00:10:21;;;;;;;4.30;3.30;;;;;;;6.20;89.84;94642.91;5042089;28;20222;-58
2022/04/01 00:12:48;;;;;;;3.40;3.20;;;;;;;6.12;91.92;94646.34;5044000;28;20195;-59
2022/04/01 00:15:15;;;;;;;3.23;2.93;;;;;;;6.14;91.07;94654.84;5043624;28;20203;-58
2022/04/01 00:17:45;;;;;;;3.27;3.07;;;;;;;6.21;90.36;94647.97;5042912;28;20207;-59
2022/04/01 00:20:13;;;;;;;3.00;2.80;;;;;;;6.19;90.08;94646.50;5042220;28;20208;-59
2022/04/01 00:22:40;;;;;;;3.47;3.17;;;;;;;6.17;91.14;94653.69;5043157;28;20245;-58
2022/04/01 00:25:07;;;;;;;3.60;3.30;;;;;;;6.19;90.13;94659.63;5043165;28;20572;-59
2022/04/01 00:27:34;;;;;;;3.40;3.20;;;;;;;6.15;90.24;94653.06;5043797;28;20207;-59
2022/04/01 00:30:01;;;;;;;3.53;3.33;;;;;;;6.11;90.68;94649.94;5042783;28;20228;-59
2022/04/01 00:32:29;;;;;;;3.40;3.20;;;;;;;6.07;91.30;94653.03;5043295;28;20210;-59
2022/04/01 00:34:57;;;;;;;3.83;3.53;;;;;;;6.13;91.29;94652.41;5043689;28;20225;-58
2022/04/01 00:37:24;;;;;;;3.57;3.37;;;;;;;6.19;90.08;94646.50;5043415;28;20211;-58
2022/04/01 00:39:50;;;;;;;3.40;3.20;;;;;;;6.09;90.58;94651.09;5043620;28;20223;-60
2022/04/01 00:42:17;;;;;;;4.23;3.83;;;;;;;6.11;90.50;94649.94;5042422;28;20199;-59
2022/04/01 00:44:44;;;;;;;3.80;3.60;;;;;;;6.08;90.77;94647.66;5042686;28;21373;-59
2022/04/01 00:47:12;;;;;;;3.40;3.20;;;;;;;5.98;91.54;94641.75;5043677;28;20266;-59
2022/04/01 00:49:39;;;;;;;3.53;3.33;;;;;;;6.02;92.13;94647.50;5043432;28;20218;-59
2022/04/01 00:52:09;;;;;;;3.67;3.47;;;;;;;6.00;91.64;94650.25;5064556;28;20187;-59
2022/04/01 00:54:36;;;;;;;3.70;3.50;;;;;;;5.92;91.65;94645.81;5047417;28;20207;-59
2022/04/01 00:57:03;;;;;;;3.70;3.50;;;;;;;5.91;92.14;94648.63;5069749;28;20328;-60
2022/04/01 00:59:30;;;;;;;4.23;3.93;;;;;;;5.95;92.30;94645.50;5066592;28;20195;-59
2022/04/01 01:01:56;;;;;;;3.60;3.40;;;;;;;5.95;93.03;94650.75;5066721;28;20184;-59
2022/04/01 01:04:24;;;;;;;4.20;3.90;;;;;;;5.95;93.35;94644.72;5047328;28;20457;-59
2022/04/01 01:06:53;;;;;;;4.20;4.00;;;;;;;5.92;92.65;94651.06;5049426;28;20188;-60
2022/04/01 01:09:21;;;;;;;4.27;3.97;;;;;;;5.93;93.01;94644.84;5058717;28;20227;-60
2022/04/01 01:11:51;;;;;;;4.37;4.07;;;;;;;6.00;93.23;94647.63;5055743;28;20203;-59
2022/04/01 01:14:24;;;;;;;5.30;4.30;;;;;;;5.94;96.32;94643.88;5047681;28;20235;-59
2022/04/01 01:16:51;;;;;;;4.20;3.90;;;;;;;5.96;94.33;94643.69;5041488;28;20654;-59
2022/04/01 01:19:18;;;;;;;4.40;4.10;;;;;;;5.92;94.92;94645.81;5042225;28;20203;-60
2022/04/01 01:21:48;;;;;;;4.67;4.37;;;;;;;5.90;94.55;94642.56;5040853;28;20208;-59
2022/04/01 01:24:16;;;;;;;4.53;4.23;;;;;;;5.96;94.19;94641.91;5041374;28;20211;-59
2022/04/01 01:26:49;;;;;;;4.60;4.30;;;;;;;5.94;95.94;94638.63;5041609;28;20230;-59
2022/04/01 01:29:19;;;;;;;5.00;4.70;;;;;;;5.97;93.20;94637.47;5040455;28;20219;-60
2022/04/01 01:31:46;;;;;;;4.97;4.67;;;;;;;5.98;95.94;94641.75;5040805;28;20203;-59
2022/04/01 01:34:13;;;;;;;5.27;4.87;;;;;;;5.96;96.57;94641.91;5044616;28;20219;-59
2022/04/01 01:36:40;;;;;;;5.43;5.03;;;;;;;5.99;96.05;94641.56;5044705;28;20587;-59
2022/04/01 01:39:06;;;;;;;5.53;5.13;;;;;;;6.00;95.86;94637.16;5045001;28;20207;-58
2022/04/01 01:41:33;;;;;;;5.40;5.00;;;;;;;5.97;96.88;94638.31;5045083;28;20216;-60
2022/04/01 01:44:01;;;;;;;5.50;5.10;;;;;;;5.94;97.33;94632.56;5044990;28;20215;-59
2022/04/01 01:46:27;;;;;;;5.00;4.67;;;;;;;5.96;96.77;94636.66;5044504;28;20203;-60
2022/04/01 01:48:53;;;;;;;5.77;5.37;;;;;;;6.00;97.82;94632.72;5044367;28;20227;-59
2022/04/01 01:56:48;;;;;;;5.80;5.40;;;;;;;6.07;94.38;94619.75;5044440;28;20229;-60
2022/04/01 01:59:18;;;;;;;5.80;5.40;;;;;;;6.06;96.76;94622.56;5044347;28;20207;-60
2022/04/01 02:01:45;;;;;;;5.73;5.33;;;;;;;6.03;96.47;94630.75;5044883;28;20291;-59
2022/04/01 02:04:11;;;;;;;5.87;5.47;;;;;;;6.07;94.73;94626.81;5045602;28;20265;-60
2022/04/01 02:06:39;;;;;;;5.87;5.47;;;;;;;5.98;94.93;94629.47;5045168;28;20206;-59
2022/04/01 02:09:05;;;;;;;6.37;5.87;;;;;;;6.02;97.03;94619.47;5045656;28;20208;-61
2022/04/01 02:11:32;;;;;;;6.40;5.87;;;;;;;5.94;97.40;94625.53;5043713;28;20214;-60
2022/04/01 02:13:58;;;;;;;6.73;6.23;;;;;;;5.97;97.76;94622.56;5044586;28;20287;-59
2022/04/01 02:16:26;;;;;;;6.53;6.03;;;;;;;6.00;96.68;94622.22;5044069;28;20214;-60
2022/04/01 02:18:54;;;;;;;6.33;5.87;;;;;;;6.03;95.88;94625.50;5043551;28;20215;-59
2022/04/01 02:21:21;;;;;;;6.03;5.63;;;;;;;5.99;95.72;94620.59;5044363;28;20206;-60
2022/04/01 02:23:50;;;;;;;6.60;6.10;;;;;;;5.96;94.88;94615.66;5044506;28;20203;-59
2022/04/01 02:26:17;;;;;;;6.37;5.80;;;;;;;5.89;94.01;94621.72;5043962;28;20720;-59
2022/04/01 02:28:45;;;;;;;6.87;6.07;;;;;;;5.86;93.58;94617.63;5043546;28;20203;-60
2022/04/01 02:31:12;;;;;;;6.67;6.17;;;;;;;5.87;93.82;94621.91;5043349;28;20223;-59
2022/04/01 02:33:42;;;;;;;6.43;5.93;;;;;;;5.87;94.36;94627.16;5043600;28;20215;-59
2022/04/01 02:36:10;;;;;;;6.43;5.93;;;;;;;5.87;95.56;94627.16;5043895;28;20199;-59
2022/04/01 02:38:39;;;;;;;7.00;6.40;;;;;;;5.85;95.58;94623.81;5043912;28;20207;-60
2022/04/01 02:41:06;;;;;;;7.43;6.57;;;;;;;5.86;95.39;94625.50;5043999;28;20246;-60
2022/04/01 02:43:34;;;;;;;7.23;6.63;;;;;;;5.86;94.99;94622.06;5043303;28;20242;-60
2022/04/01 02:46:00;;;;;;;7.00;6.37;;;;;;;5.90;94.15;94618.13;5043860;28;20520;-60
2022/04/01 02:48:27;;;;;;;6.60;6.10;;;;;;;5.85;94.64;94618.59;5043736;28;20235;-60
2022/04/01 02:50:55;;;;;;;7.30;6.63;;;;;;;5.72;94.92;94609.56;5043897;28;20297;-60
2022/04/01 02:53:22;;;;;;;6.47;5.97;;;;;;;5.76;94.54;94618.75;5043832;28;20203;-61
2022/04/01 02:55:48;;;;;;;6.17;5.77;;;;;;;5.81;94.37;94612.03;5042748;28;20228;-60
2022/04/01 02:58:15;;;;;;;6.43;5.83;;;;;;;5.79;92.12;94619.25;5043291;28;20196;-61
2022/04/01 03:00:41;;;;;;;6.87;6.27;;;;;;;5.73;93.97;94625.16;5042770;28;20523;-59
2022/04/01 03:03:09;;;;;;;6.30;5.70;;;;;;;5.72;94.99;94618.25;5043328;28;20199;-60
2022/04/01 03:05:35;;;;;;;6.97;6.37;;;;;;;5.69;93.73;94621.22;5043367;28;20216;-60
2022/04/01 03:08:05;;;;;;;6.40;5.90;;;;;;;5.68;94.17;94623.97;5043835;28;20219;-60
2022/04/01 03:10:31;;;;;;;6.30;5.80;;;;;;;5.62;95.64;94617.59;5042678;28;20235;-60
2022/04/01 03:12:58;;;;;;;6.90;6.30;;;;;;;5.68;95.93;94616.94;5042812;28;20199;-59
2022/04/01 03:15:25;;;;;;;6.80;6.20;;;;;;;5.71;95.06;94615.78;5042636;28;20211;-60
2022/04/01 03:17:51;;;;;;;6.30;5.80;;;;;;;5.67;97.02;94615.28;5043338;28;20231;-59
2022/04/01 03:20:18;;;;;;;6.17;5.67;;;;;;;5.71;93.83;94621.84;5042848;28;20200;-59
2022/04/01 03:22:45;;;;;;;6.80;6.20;;;;;;;5.66;95.61;94618.91;5042956;28;20203;-59
2022/04/01 03:25:15;;;;;;;6.10;5.60;;;;;;;5.68;93.70;94616.94;5055025;28;20226;-60
2022/04/01 03:27:42;;;;;;;6.00;5.50;;;;;;;5.66;93.05;94621.53;5064357;28;20172;-60
2022/04/01 03:30:10;;;;;;;5.90;5.40;;;;;;;5.66;92.54;94621.53;5069674;28;20219;-60
2022/04/01 03:32:37;;;;;;;6.17;5.67;;;;;;;5.63;92.29;94618.41;5044424;28;20532;-59
2022/04/01 03:35:05;;;;;;;7.03;6.43;;;;;;;5.58;92.83;94624.16;5042576;28;20208;-60
2022/04/01 03:37:31;;;;;;;6.83;6.23;;;;;;;5.48;93.36;94620.84;5043465;28;20204;-59
2022/04/01 03:39:59;;;;;;;7.20;6.60;;;;;;;5.46;94.48;94618.38;5043262;28;20192;-60
2022/04/01 03:42:30;;;;;;;6.20;5.70;;;;;;;5.50;94.12;94609.22;5043639;28;20243;-60
2022/04/01 03:44:56;;;;;;;6.50;6.00;;;;;;;5.51;94.09;94623.16;5042572;28;20202;-59
2022/04/01 03:47:28;;;;;;;7.23;6.57;;;;;;;5.55;94.30;94606.13;5042781;28;20219;-59
2022/04/01 03:50:01;;;;;;;7.07;6.47;;;;;;;5.47;94.81;94613.97;5042753;28;20212;-59
2022/04/01 03:52:27;;;;;;;7.63;7.03;;;;;;;5.51;95.72;94612.66;5042041;28;20196;-60
2022/04/01 03:54:59;;;;;;;9.03;8.23;;;;;;;5.49;96.62;94614.63;5042612;28;20218;-59
2022/04/01 03:57:35;;;;;;;12.03;10.83;;;;;;;5.48;96.29;94616.44;5041250;28;20254;-60
2022/04/01 04:00:02;;;;;;;9.20;8.30;;;;;;;5.45;96.25;94608.06;5041700;28;20644;-58
2022/04/01 04:02:29;;;;;;;9.27;8.37;;;;;;;5.53;93.69;94605.44;5041872;28;20212;-60
2022/04/01 04:04:56;;;;;;;9.20;8.30;;;;;;;5.49;95.01;94614.63;5042065;28;20257;-60
2022/04/01 04:07:24;;;;;;;8.90;8.10;;;;;;;5.48;97.12;94610.38;5042218;28;20207;-60
2022/04/01 04:09:51;;;;;;;10.47;9.37;;;;;;;5.50;96.09;94621.50;5042463;28;20234;-60
2022/04/01 04:12:20;;;;;;;9.50;8.50;;;;;;;5.47;95.77;94613.97;5041847;28;20234;-60
2022/04/01 04:14:52;;;;;;;9.13;8.23;;;;;;;5.49;96.39;94619.88;5042251;28;20207;-59
2022/04/01 04:17:24;;;;;;;9.77;8.80;;;;;;;5.49;96.38;94617.25;5042707;28;20506;-59
2022/04/01 04:19:56;;;;;;;8.63;7.83;;;;;;;5.52;95.46;94614.31;5041417;28;20238;-60
2022/04/01 04:22:25;;;;;;;9.10;8.20;;;;;;;5.54;93.88;94614.97;5041880;28;20195;-60
2022/04/01 04:24:55;;;;;;;8.67;7.87;;;;;;;5.52;93.38;94619.56;5042304;28;20207;-60
2022/04/01 04:27:27;;;;;;;8.27;7.47;;;;;;;5.53;92.68;94614.13;5041361;28;20247;-61
2022/04/01 04:30:03;;;;;;;7.90;7.10;;;;;;;5.44;93.70;94620.34;5040996;28;20651;-60
2022/04/01 04:32:34;;;;;;;7.50;6.80;;;;;;;5.36;93.25;94622.94;5042146;28;20210;-60
2022/04/01 04:35:04;;;;;;;7.80;7.10;;;;;;;5.39;92.45;94621.81;5042082;28;20550;-61
2022/04/01 04:37:33;;;;;;;8.27;7.47;;;;;;;5.32;93.79;94624.25;5041919;28;20196;-60
2022/04/01 04:40:00;;;;;;;8.37;7.57;;;;;;;5.34;91.93;94624.09;5042427;28;20195;-61
2022/04/01 04:42:28;;;;;;;7.10;6.50;;;;;;;5.31;91.75;94629.66;5041497;28;20533;-60
2022/04/01 04:44:56;;;;;;;7.10;6.50;;;;;;;5.31;91.20;94622.63;5041443;28;20560;-60
2022/04/01 04:47:25;;;;;;;6.83;6.27;;;;;;;5.27;91.29;94626.56;5041959;28;20696;-60
2022/04/01 04:49:53;;;;;;;6.63;6.03;;;;;;;5.22;93.10;94633.22;5041441;28;20211;-59
2022/04/01 04:52:20;;;;;;;6.57;5.87;;;;;;;5.27;91.76;94628.34;5041484;28;20341;-59
2022/04/01 04:54:47;;;;;;;6.23;5.73;;;;;;;5.17;91.58;94628.50;5042353;28;20254;-60
2022/04/01 04:57:15;;;;;;;6.20;5.70;;;;;;;5.18;91.84;94631.91;5040866;28;20887;-60
2022/04/01 04:59:42;;;;;;;5.30;4.90;;;;;;;5.19;92.31;94634.38;5041427;28;20214;-60
2022/04/01 05:02:13;;;;;;;5.40;5.00;;;;;;;5.17;92.62;94644.22;5041953;28;20525;-60
2022/04/01 05:05:04;;;;;;;5.37;4.97;;;;;;;5.18;91.34;94645.00;5041693;28;20195;-59
2022/04/01 05:07:38;;;;;;;4.50;4.20;;;;;;;5.09;91.28;94645.97;5042064;28;20298;-60
2022/04/01 05:10:07;;;;;;;4.23;3.83;;;;;;;5.03;92.29;94642.16;5044764;28;20213;-59
2022/04/01 05:12:36;;;;;;;3.80;3.50;;;;;;;5.06;92.00;94651.53;5045314;28;20222;-60
2022/04/01 05:15:08;;;;;;;4.50;4.20;;;;;;;4.99;93.13;94656.59;5046430;28;20207;-60
2022/04/01 05:17:37;;;;;;;3.87;3.57;;;;;;;4.95;91.45;94656.06;5045602;28;20222;-60
2022/04/01 05:20:11;;;;;;;4.73;4.33;;;;;;;4.94;91.20;94657.03;5047070;28;20241;-60
2022/04/01 05:22:47;;;;;;;4.10;3.80;;;;;;;4.87;91.25;94671.75;5045569;28;20207;-59
2022/04/01 05:25:17;;;;;;;4.27;3.87;;;;;;;4.84;91.21;94673.84;5046176;28;20205;-61
2022/04/01 05:27:52;;;;;;;4.50;3.90;;;;;;;4.79;95.11;94676.94;5045647;28;20728;-60
2022/04/01 05:30:25;;;;;;;4.07;3.77;;;;;;;4.77;94.84;94685.94;5045206;28;20309;-59
2022/04/01 05:33:02;;;;;;;3.93;3.63;;;;;;;4.81;95.72;94690.72;5046585;28;20223;-61
2022/04/01 05:35:31;;;;;;;3.87;3.57;;;;;;;4.86;94.86;94688.44;5047285;28;20184;-60
2022/04/01 05:37:59;;;;;;;4.33;3.93;;;;;;;4.90;95.05;94689.75;5050239;28;20207;-60
2022/04/01 05:40:26;;;;;;;3.73;3.43;;;;;;;4.80;95.05;94689.06;5051208;28;20210;-60
2022/04/01 05:42:53;;;;;;;3.50;3.30;;;;;;;4.86;93.81;94691.03;5053561;28;20191;-61
2022/04/01 05:45:20;;;;;;;3.03;2.83;;;;;;;4.69;95.71;94696.34;5059416;28;20211;-60
2022/04/01 05:47:47;;;;;;;3.50;3.30;;;;;;;4.75;96.13;94687.88;5056226;28;20200;-62
2022/04/01 05:50:18;;;;;;;4.03;3.73;;;;;;;4.86;95.19;94688.44;5062898;28;20182;-61
2022/04/01 05:52:47;;;;;;;4.17;3.87;;;;;;;4.81;94.86;94690.72;5064007;28;20184;-60
2022/04/01 05:55:13;;;;;;;3.70;3.40;;;;;;;4.78;96.67;94684.97;5050218;28;20848;-60
2022/04/01 05:57:40;;;;;;;2.80;2.70;;;;;;;4.75;94.11;94691.31;5046426;28;20658;-59
2022/04/01 06:00:12;;;;;;;5.67;5.17;;;;;;;4.73;92.49;94693.28;5047807;28;20206;-58
2022/04/01 06:03:07;;;;;;;3.47;3.27;;;;;;;4.64;92.47;94694.19;5045222;28;20230;-59
2022/04/01 06:05:37;;;;;;;3.00;2.80;;;;;;;4.68;91.46;94700.75;5045293;28;20198;-61
2022/04/01 06:08:07;;;;;;;3.00;2.90;;;;;;;4.67;90.48;94693.91;5046773;28;20210;-60
2022/04/01 06:10:42;;;;;;;3.17;2.97;;;;;;;4.59;89.81;94700.88;5045793;28;20223;-60
2022/04/01 06:13:17;;;;;;;4.67;4.37;;;;;;;4.58;90.18;94704.44;5046867;28;20252;-60
2022/04/01 06:15:50;;;;;;;3.30;3.10;;;;;;;4.46;92.06;94701.28;5044288;28;20199;-60
2022/04/01 06:18:27;;;;;;;4.90;4.20;;;;;;;4.53;91.06;94701.50;5044882;28;20554;-60
2022/04/01 06:20:55;;;;;;;4.00;3.80;;;;;;;4.46;92.15;94707.31;5044319;28;20202;-60
2022/04/01 06:23:27;;;;;;;3.40;3.17;;;;;;;4.40;91.98;94701.88;5044177;28;20200;-60
2022/04/01 06:25:56;;;;;;;2.83;2.67;;;;;;;4.43;94.60;94706.81;5043528;28;20578;-60
2022/04/01 06:28:25;;;;;;;3.33;3.13;;;;;;;4.48;92.33;94713.25;5043511;28;20230;-59
2022/04/01 06:30:54;;;;;;;2.30;2.20;;;;;;;4.50;91.35;94713.91;5042924;28;20666;-60
2022/04/01 06:33:30;;;;;;;1.63;1.53;;;;;;;4.48;92.51;94715.03;5043706;28;20245;-61
2022/04/01 06:36:00;;;;;;;1.60;1.50;;;;;;;4.52;91.53;94721.59;5043815;28;20211;-60
2022/04/01 06:38:35;;;;;;;1.63;1.53;;;;;;;4.56;90.84;94717.72;5046074;28;20688;-60
2022/04/01 06:41:05;;;;;;;1.60;1.50;;;;;;;4.62;92.66;94717.09;5048863;28;20205;-58
2022/04/01 06:43:32;;;;;;;1.57;1.47;;;;;;;4.63;93.61;94716.13;5052677;28;20203;-59
2022/04/01 06:45:59;;;;;;;1.50;1.40;;;;;;;4.77;91.32;94725.19;5059111;28;20207;-58
2022/04/01 06:48:26;;;;;;;1.60;1.60;;;;;;;4.69;91.58;94720.72;5063028;28;20206;-59
2022/04/01 06:50:54;;;;;;;1.57;1.47;;;;;;;4.54;91.74;94730.13;5060265;28;20648;-58
2022/04/01 06:53:25;;;;;;;1.67;1.57;;;;;;;4.51;91.57;94735.66;5047760;28;20604;-58
2022/04/01 06:55:52;;;;;;;2.10;1.90;;;;;;;4.50;92.70;94731.38;5044176;28;20601;-58
2022/04/01 06:58:19;;;;;;;1.60;1.50;;;;;;;4.53;93.26;94732.91;5043205;28;20235;-58
2022/04/01 07:00:45;;;;;;;2.40;1.50;;;;;;;4.58;93.39;94731.44;5041961;28;20219;-58
2022/04/01 07:03:14;;;;;;;1.77;1.37;;;;;;;4.57;92.44;94740.28;5043411;28;20528;-59
2022/04/01 07:05:41;;;;;;;1.90;1.37;;;;;;;4.64;94.02;94740.50;5044308;28;20199;-58
2022/04/01 07:08:08;;;;;;;1.40;1.30;;;;;;;4.71;92.56;94736.28;5042906;28;20640;-57
2022/04/01 07:10:36;;;;;;;1.00;1.00;;;;;;;4.90;92.37;94742.13;5043388;28;20207;-58
2022/04/01 07:13:03;;;;;;;1.67;1.57;;;;;;;4.66;91.00;94741.97;5043820;28;20222;-58
2022/04/01 07:15:29;;;;;;;1.17;1.17;;;;;;;4.69;91.75;94749.53;5046185;28;20233;-57
2022/04/01 07:17:56;;;;;;;1.30;1.20;;;;;;;4.70;92.37;94748.56;5046456;28;20210;-59
2022/04/01 07:20:23;;;;;;;1.10;1.10;;;;;;;4.58;91.68;94744.53;5056297;28;20214;-58
2022/04/01 07:22:51;;;;;;;1.33;1.30;;;;;;;4.86;91.94;94739.97;5053187;28;20196;-59
2022/04/01 07:25:18;;;;;;;1.30;1.30;;;;;;;4.82;90.96;94742.06;5049434;28;20292;-58
2022/04/01 07:27:46;;;;;;;1.20;1.10;;;;;;;4.83;88.43;94743.72;5050191;28;20200;-59
2022/04/01 07:30:13;;;;;;;0.97;0.97;;;;;;;4.81;90.59;94745.69;5051311;28;20200;-58
2022/04/01 07:32:40;;;;;;;1.10;1.10;;;;;;;4.84;89.64;94753.22;5051070;28;20654;-59
2022/04/01 07:35:10;;;;;;;1.33;1.23;;;;;;;4.64;89.73;94750.97;5060405;28;20194;-59
2022/04/01 07:37:36;;;;;;;1.60;1.40;;;;;;;4.60;91.07;94747.84;5060469;28;20214;-58
2022/04/01 07:40:05;;;;;;;1.53;1.43;;;;;;;4.80;90.17;94756.31;5063020;28;20198;-58
2022/04/01 07:42:34;;;;;;;1.40;1.40;;;;;;;4.81;91.88;94756.16;5057919;28;20200;-57
2022/04/01 07:45:04;;;;;;;1.90;1.80;;;;;;;4.65;91.04;94753.41;5044766;28;20204;-58
2022/04/01 07:47:32;;;;;;;1.77;1.67;;;;;;;4.73;91.21;94760.50;5043542;28;20264;-58
2022/04/01 07:50:00;;;;;;;1.57;1.50;;;;;;;4.81;90.91;94748.31;5043463;28;20222;-59
2022/04/01 07:52:29;;;;;;;1.57;1.47;;;;;;;4.75;90.95;94748.91;5042446;28;20227;-58
2022/04/01 07:54:55;;;;;;;1.90;1.80;;;;;;;4.72;92.45;94751.00;5043173;28;20257;-57
2022/04/01 07:57:22;;;;;;;2.47;1.87;;;;;;;4.71;93.93;94755.41;5043836;28;20211;-57
2022/04/01 07:59:49;;;;;;;2.00;1.90;;;;;;;4.72;92.68;94757.06;5043380;28;20299;-57
2022/04/01 08:02:17;;;;;;;2.07;1.97;;;;;;;4.77;93.11;94757.44;5042284;28;20208;-58
2022/04/01 08:04:45;;;;;;;1.90;1.80;;;;;;;4.93;93.67;94757.53;5043278;28;20207;-58
2022/04/01 08:07:12;;;;;;;1.80;1.70;;;;;;;4.80;91.62;94757.13;5041914;28;20203;-57
2022/04/01 08:09:38;;;;;;;1.93;1.83;;;;;;;4.93;94.44;94757.53;5041955;28;20218;-58
2022/04/01 08:12:08;;;;;;;2.40;2.20;;;;;;;4.92;93.76;94762.94;5042862;28;20223;-58
2022/04/01 08:14:37;;;;;;;1.90;1.80;;;;;;;5.01;92.84;94762.81;5042854;28;20214;-58
2022/04/01 08:17:04;;;;;;;2.10;2.00;;;;;;;4.93;91.50;94773.25;5042700;28;20231;-59
2022/04/01 08:19:32;;;;;;;1.60;1.50;;;;;;;4.85;90.34;94775.81;5042017;28;20226;-59
2022/04/01 08:21:59;;;;;;;1.27;1.17;;;;;;;4.65;90.43;94778.78;5041839;28;20203;-59
2022/04/01 08:24:26;;;;;;;1.43;1.40;;;;;;;4.54;93.03;94782.47;5041952;28;20203;-59
2022/04/01 08:26:52;;;;;;;1.30;1.30;;;;;;;4.43;92.29;94777.47;5045830;28;20238;-59
2022/04/01 08:29:20;;;;;;;1.47;1.40;;;;;;;4.49;92.16;94779.50;5049838;28;21160;-60
2022/04/01 08:31:46;;;;;;;1.90;1.80;;;;;;;4.60;91.97;94784.50;5062154;28;20214;-60
2022/04/01 08:34:13;;;;;;;1.73;1.63;;;;;;;4.77;91.15;94786.25;5068534;28;20230;-64
2022/04/01 08:36:41;;;;;;;1.57;1.47;;;;;;;4.76;90.83;94795.06;5043577;28;20210;-60
2022/04/01 08:39:07;;;;;;;1.40;1.40;;;;;;;4.80;89.95;94799.03;5043096;28;20675;-59
2022/04/01 08:41:34;;;;;;;1.83;1.73;;;;;;;4.79;90.33;94805.22;5041698;28;20209;-57
2022/04/01 08:44:00;;;;;;;1.50;1.50;;;;;;;4.85;90.12;94806.44;5046010;28;20222;-59
2022/04/01 08:46:27;;;;;;;1.27;1.27;;;;;;;4.76;90.87;94805.53;5045718;28;20636;-59
2022/04/01 08:48:53;;;;;;;1.10;1.10;;;;;;;4.74;90.65;94810.13;5045546;28;20210;-59
2022/04/01 08:51:20;;;;;;;1.00;1.00;;;;;;;4.77;90.27;94820.28;5044987;28;20287;-58
2022/04/01 08:53:49;;;;;;;1.97;1.87;;;;;;;4.73;90.55;94818.94;5047125;28;20221;-59
2022/04/01 08:56:19;;;;;;;1.77;1.67;;;;;;;4.80;89.91;94822.59;5054110;28;20198;-60
2022/04/01 08:58:46;;;;;;;1.80;1.70;;;;;;;4.71;90.42;94823.47;5044704;28;20214;-59
2022/04/01 09:01:14;;;;;;;1.63;1.53;;;;;;;4.59;93.31;94827.34;5048585;28;20200;-59
2022/04/01 09:03:43;;;;;;;1.60;1.50;;;;;;;4.63;93.35;94839.16;5045736;28;20610;-58
2022/04/01 09:06:10;;;;;;;1.20;1.20;;;;;;;4.67;91.01;94837.88;5046400;28;20218;-59
2022/04/01 09:08:39;;;;;;;2.00;1.90;;;;;;;4.70;91.83;94845.44;5045860;28;20209;-59
2022/04/01 09:11:08;;;;;;;2.10;2.00;;;;;;;4.57;91.25;94844.97;5045974;28;20202;-59
2022/04/01 09:13:36;;;;;;;2.40;2.30;;;;;;;4.61;93.10;94851.53;5044839;28;20266;-58
2022/04/01 09:16:03;;;;;;;1.57;1.47;;;;;;;4.64;92.77;94850.44;5044703;28;20330;-60
2022/04/01 09:18:35;;;;;;;1.90;1.80;;;;;;;4.52;92.54;94855.09;5044416;28;20535;-61
2022/04/01 09:21:01;;;;;;;2.33;2.23;;;;;;;4.38;92.90;94860.84;5045481;28;20203;-58
2022/04/01 09:23:28;;;;;;;2.30;2.20;;;;;;;4.38;94.52;94856.44;5045269;28;20210;-59
2022/04/01 09:25:55;;;;;;;2.40;2.30;;;;;;;4.56;92.49;94868.69;5044921;28;20246;-59
2022/04/01 09:28:27;;;;;;;2.57;2.37;;;;;;;4.64;90.08;94860.91;5045970;28;20528;-59
2022/04/01 09:30:59;;;;;;;2.47;2.27;;;;;;;4.59;90.09;94865.78;5044759;28;20218;-59
2022/04/01 09:33:29;;;;;;;2.30;2.20;;;;;;;4.62;89.97;94866.28;5043950;28;20224;-60
2022/04/01 09:35:56;;;;;;;2.27;2.17;;;;;;;4.59;90.26;94865.78;5044576;28;20231;-60
2022/04/01 09:38:24;;;;;;;2.30;2.20;;;;;;;4.60;90.53;94870.88;5044454;28;20211;-58
2022/04/01 09:40:53;;;;;;;2.47;2.37;;;;;;;4.58;91.26;94872.78;5044432;28;20200;-60
2022/04/01 09:43:23;;;;;;;2.90;2.70;;;;;;;4.61;91.63;94872.50;5044886;28;20218;-59
2022/04/01 09:45:52;;;;;;;2.60;2.50;;;;;;;4.65;90.89;94879.06;5044839;28;20889;-59
2022/04/01 09:48:20;;;;;;;2.97;2.77;;;;;;;4.65;90.97;94878.25;5044363;28;20203;-59
2022/04/01 09:50:56;;;;;;;2.50;2.40;;;;;;;4.63;91.39;94870.56;5045322;28;20211;-59
2022/04/01 09:53:25;;;;;;;2.30;2.20;;;;;;;4.70;89.34;94882.06;5044428;28;20203;-58
2022/04/01 09:55:52;;;;;;;2.37;2.27;;;;;;;4.62;91.47;94874.16;5044396;28;20269;-59
2022/04/01 09:58:21;;;;;;;2.30;2.20;;;;;;;4.68;91.44;94873.53;5045114;28;20203;-61
2022/04/01 10:00:47;;;;;;;2.40;2.30;;;;;;;4.81;91.10;94873.16;5045176;28;20214;-61
2022/04/01 10:03:16;;;;;;;2.63;2.53;;;;;;;4.85;91.23;94874.50;5045088;28;20293;-59
2022/04/01 10:05:43;;;;;;;2.87;2.67;;;;;;;4.83;91.35;94877.28;5044529;28;20219;-58
2022/04/01 10:08:11;;;;;;;2.70;2.60;;;;;;;4.95;90.71;94875.25;5044059;28;20210;-58
2022/04/01 10:10:38;;;;;;;2.90;2.70;;;;;;;4.98;91.94;94880.19;5044018;28;20215;-59
2022/04/01 10:13:07;;;;;;;3.03;2.83;;;;;;;5.01;89.40;94880.69;5044311;28;20794;-59
2022/04/01 10:15:33;;;;;;;3.03;2.83;;;;;;;5.06;91.17;94884.66;5044160;28;20206;-61
2022/04/01 10:18:04;;;;;;;3.30;3.10;;;;;;;4.95;89.53;94880.47;5044241;28;20208;-59
2022/04/01 10:20:34;;;;;;;3.37;3.07;;;;;;;4.97;93.89;94886.38;5044803;28;20552;-56
2022/04/01 10:23:03;;;;;;;3.40;3.17;;;;;;;4.94;89.42;94884.91;5044899;28;20528;-60
2022/04/01 10:25:32;;;;;;;3.30;3.10;;;;;;;4.98;91.15;94883.63;5043436;28;20332;-61
2022/04/01 10:28:02;;;;;;;3.80;3.50;;;;;;;4.98;90.38;94888.84;5043839;28;20211;-64
2022/04/01 10:30:31;;;;;;;3.47;3.17;;;;;;;4.96;91.48;94884.72;5044468;28;20635;-60
2022/04/01 10:32:58;;;;;;;3.50;3.30;;;;;;;5.01;89.23;94880.69;5044297;28;20690;-62
2022/04/01 10:35:26;;;;;;;3.57;3.27;;;;;;;5.14;89.79;94884.69;5043911;28;20217;-58
2022/04/01 10:37:55;;;;;;;3.20;3.00;;;;;;;5.24;88.40;94885.44;5043678;28;20208;-59
2022/04/01 10:40:25;;;;;;;3.60;3.30;;;;;;;5.25;88.05;94889.69;5044739;28;20253;-60
2022/04/01 10:42:51;;;;;;;3.23;3.00;;;;;;;5.21;89.30;94891.00;5044185;28;20225;-60
2022/04/01 10:45:24;;;;;;;3.60;3.40;;;;;;;5.27;88.98;94888.59;5045036;28;20640;-59
2022/04/01 10:53:38;;;;;;;4.10;3.80;;;;;;;5.28;88.63;94884.16;5060989;28;20201;-60
2022/04/01 10:56:30;;;;;;;3.63;3.43;;;;;;;5.20;86.94;94886.72;5067970;28;20195;-59
2022/04/01 10:59:14;;;;;;;3.90;3.60;;;;;;;5.27;87.94;94882.50;5069582;28;20205;-60
2022/04/01 11:01:43;;;;;;;4.13;3.83;;;;;;;5.21;87.90;94891.78;5051963;28;20195;-59
2022/04/01 11:04:27;;;;;;;4.27;3.97;;;;;;;5.20;88.56;94894.59;5045696;28;20206;-60
2022/04/01 11:06:55;;;;;;;4.13;3.83;;;;;;;5.25;89.05;94894.94;5043823;28;20245;-60
2022/04/01 11:09:46;;;;;;;4.70;4.17;;;;;;;5.25;87.78;94897.56;5043004;28;20211;-60
2022/04/01 11:12:32;;;;;;;4.67;3.97;;;;;;;5.26;88.81;94897.41;5043913;28;20269;-59
2022/04/01 11:15:15;;;;;;;4.20;3.90;;;;;;;5.32;89.23;94895.97;5042865;28;20203;-57
2022/04/01 11:18:07;;;;;;;3.93;3.63;;;;;;;5.50;91.55;94901.97;5043274;28;20705;-59
2022/04/01 11:20:35;;;;;;;4.10;3.80;;;;;;;5.53;90.49;94907.72;5044161;28;20203;-59
2022/04/01 11:23:10;;;;;;;4.77;4.47;;;;;;;5.61;88.84;94904.34;5043967;28;20306;-60
2022/04/01 11:26:02;;;;;;;4.03;3.73;;;;;;;5.69;91.73;94906.19;5046309;28;20948;-60
2022/04/01 11:28:30;;;;;;;4.23;3.93;;;;;;;5.84;90.29;94915.13;5032943;28;20203;-60
2022/04/01 11:31:15;;;;;;;3.93;3.63;;;;;;;5.71;87.46;94909.47;5045217;28;20208;-60
2022/04/01 11:33:56;;;;;;;3.80;3.60;;;;;;;5.81;89.46;94916.25;5046974;28;20224;-61
2022/04/01 11:36:24;;;;;;;3.43;3.23;;;;;;;5.79;88.81;94915.59;5049812;28;20948;-60
2022/04/01 11:38:50;;;;;;;3.53;3.33;;;;;;;5.65;85.97;94910.94;5047761;28;20219;-61
2022/04/01 11:41:19;;;;;;;3.87;3.57;;;;;;;5.69;86.74;94912.25;5047647;28;20207;-59
2022/04/01 11:43:45;;;;;;;3.90;3.60;;;;;;;5.71;88.48;94912.91;5048810;28;20214;-60
2022/04/01 11:46:13;;;;;;;3.93;3.73;;;;;;;5.44;87.07;94923.56;5044505;28;20203;-60
2022/04/01 11:48:44;;;;;;;3.50;3.30;;;;;;;5.57;91.14;94923.97;5047013;28;20199;-60
2022/04/01 11:51:14;;;;;;;3.73;3.43;;;;;;;5.58;88.62;94914.31;5050337;28;20584;-61
2022/04/01 11:53:43;;;;;;;3.40;3.10;;;;;;;5.55;86.06;94920.69;5044327;28;20211;-59
2022/04/01 11:56:11;;;;;;;4.63;4.30;;;;;;;5.34;86.08;94922.84;5041742;28;20206;-60
2022/04/01 11:58:52;;;;;;;3.70;3.50;;;;;;;5.29;86.08;94920.69;5042546;28;20211;-61
2022/04/01 12:01:19;;;;;;;3.43;3.23;;;;;;;5.31;88.54;94920.53;5042683;28;20373;-59